No data was retrieved for https://query.yahooapis.com/v1/public/yql?q=select+%2A+from+weather.forecast+where+woeid%3D587576&format=xml&u=c

Notice: Undefined index: in /customers/b/4/5/meteo45.com/httpd.www/station_meteo/wsIconUrl.php on line 132 Warning: A non-numeric value encountered in /customers/b/4/5/meteo45.com/httpd.www/station_meteo/wsIconUrl.php on line 140 Warning: A non-numeric value encountered in /customers/b/4/5/meteo45.com/httpd.www/station_meteo/wsIconUrl.php on line 141 Warning: A non-numeric value encountered in /customers/b/4/5/meteo45.com/httpd.www/station_meteo/wsFunctions.php on line 312 Warning: A non-numeric value encountered in /customers/b/4/5/meteo45.com/httpd.www/station_meteo/wsFunctions.php on line 312
Bienvenue sur la page dédiée à la station météo de Courtenay (Loiret)

Retrouvez également nos données météorologiques sur:

UK Metoffice

Weather Underground

AWEKAS

Citizen Weather Observer Program (CWOP)



Rapports METAR à proximité

Warning: A non-numeric value encountered in /customers/b/4/5/meteo45.com/httpd.www/station_meteo/metar/metarDisplay.php on line 166 Warning: A non-numeric value encountered in /customers/b/4/5/meteo45.com/httpd.www/station_meteo/metar/metarDisplay.php on line 166 Warning: A non-numeric value encountered in /customers/b/4/5/meteo45.com/httpd.www/station_meteo/metar/metarDisplay.php on line 166 Warning: A non-numeric value encountered in /customers/b/4/5/meteo45.com/httpd.www/station_meteo/metar/metarDisplay.php on line 166
   
LFOJ - Montargis
Mise à jour: 16-01-2019 02:00
Ciel dégagé  
Ciel dégagé  
   Vent: SSE 3.7 km/h
Vent: SSE 3.7 km/h
Température: 1°C
Point de rosée: -1°C
Humidité: 87%
Pression atmosphérique: 1018 hPa
Visibilité: Supérieur à 10 km
Nébulosité: Ciel dégagé
LFOJ 160100Z AUTO 15002KT CAVOK 01/M01 Q1018 NOSIG
LFOJ - Orléans
Mise à jour: 16-01-2019 02:00
Ciel dégagé  
Ciel dégagé  
   Vent: SSE 3.7 km/h
Vent: SSE 3.7 km/h
Température: 1°C
Point de rosée: -1°C
Humidité: 87%
Pression atmosphérique: 1018 hPa
Visibilité: Supérieur à 10 km
Nébulosité: Ciel dégagé
LFOJ 160100Z AUTO 15002KT CAVOK 01/M01 Q1018 NOSIG
LFQB - Sens
Mise à jour: 16-01-2019 02:00
  
  
   Vent: SO 5.6 km/h
Vent: SO 5.6 km/h
Température: 3°C
éolien: 2°C
Point de rosée: 1°C
Humidité: 87%
Pression atmosphérique: 1019 hPa
Visibilité: Supérieur à 10 km
LFQB 160100Z AUTO 22003KT 9999 ////// 03/01 Q1019
LFQB - Auxerre
Mise à jour: 16-01-2019 02:00
  
  
   Vent: SO 5.6 km/h
Vent: SO 5.6 km/h
Température: 3°C
éolien: 2°C
Point de rosée: 1°C
Humidité: 87%
Pression atmosphérique: 1019 hPa
Visibilité: Supérieur à 10 km
LFQB 160100Z AUTO 22003KT 9999 ////// 03/01 Q1019
LFPO - Paris
Mise à jour: 16-01-2019 02:00
Ciel dégagé  
Ciel dégagé  
   Vent: SSO 5.6 km/h
Vent: SSO 5.6 km/h
Température: 4°C
éolien: 3°C
Point de rosée: 1°C
Humidité: 81%
Pression atmosphérique: 1018 hPa
Visibilité: Supérieur à 10 km
Nébulosité: Ciel dégagé
LFPO 160100Z 21003KT CAVOK 04/01 Q1018 NOSIG
LFLX - Bourges
Mise à jour: 16-01-2019 02:00
Ciel dégagé  
Ciel dégagé  
   Vent: ENE 7.4 km/h
Vent: ENE 7.4 km/h
Température: 0°C
éolien: -3°C
Point de rosée: -2°C
Humidité: 87%
Pression atmosphérique: 1018 hPa
Visibilité: Supérieur à 10 km
Nébulosité: Ciel dégagé
LFLX 160100Z AUTO 07004KT CAVOK M00/M02 Q1018 TEMPO 4000 MIFG

Original script by  Saratoga-weather.org Adapted for the template by  Weerstation Leuven

Matériel utilisé:

Programme Météo
Meteohub

Meteohub